createdAt,value
2018-09-05T00:01:24.154Z,99.90
2018-09-05T00:03:53.530Z,99.90
2018-09-05T00:06:22.322Z,99.90
2018-09-05T00:08:51.364Z,99.90
2018-09-05T00:11:20.120Z,99.90
2018-09-05T00:13:49.194Z,99.90
2018-09-05T00:16:18.957Z,99.90
2018-09-05T00:18:48.334Z,99.90
2018-09-05T00:21:17.346Z,99.90
2018-09-05T00:23:46.418Z,99.90
2018-09-05T00:26:15.202Z,99.90
2018-09-05T00:28:44.734Z,99.90
2018-09-05T00:31:13.802Z,99.90
2018-09-05T00:33:42.923Z,99.90
2018-09-05T00:36:11.699Z,99.90
2018-09-05T00:38:40.506Z,99.90
2018-09-05T00:41:09.897Z,99.90
2018-09-05T00:43:38.954Z,99.90
2018-09-05T00:46:08.321Z,99.90
2018-09-05T00:48:37.098Z,99.90
2018-09-05T00:51:06.584Z,99.90
2018-09-05T00:53:35.633Z,99.90
2018-09-05T00:56:04.415Z,99.90
2018-09-05T00:58:33.519Z,99.90
2018-09-05T01:01:03.135Z,99.90
2018-09-05T01:03:32.188Z,99.90
2018-09-05T01:06:01.307Z,99.90
2018-09-05T01:08:30.395Z,99.90
2018-09-05T01:10:59.758Z,99.90
2018-09-05T01:13:28.784Z,99.90
2018-09-05T01:15:57.547Z,99.90
2018-09-05T01:18:26.587Z,99.90
2018-09-05T01:20:55.916Z,99.90
2018-09-05T01:23:25.283Z,99.90
2018-09-05T01:25:54.725Z,99.90
2018-09-05T01:28:23.850Z,99.90
2018-09-05T01:30:52.615Z,99.90
2018-09-05T01:33:21.955Z,99.90
2018-09-05T01:35:55.609Z,99.90
2018-09-05T01:38:24.386Z,99.90
2018-09-05T01:40:53.788Z,99.90
2018-09-05T01:43:22.558Z,99.90
2018-09-05T01:45:51.326Z,99.90
2018-09-05T01:48:20.138Z,99.90
2018-09-05T01:50:49.495Z,99.90
2018-09-05T01:53:18.247Z,99.90
2018-09-05T01:55:47.046Z,99.90
2018-09-05T01:58:15.819Z,99.90
2018-09-05T02:00:44.998Z,99.90
2018-09-05T02:03:13.764Z,99.90
2018-09-05T02:05:42.898Z,99.90
2018-09-05T02:08:11.962Z,99.90
2018-09-05T02:10:41.396Z,99.90
2018-09-05T02:13:10.181Z,99.90
2018-09-05T02:15:39.247Z,99.90
2018-09-05T02:18:08.071Z,99.90
2018-09-05T02:20:37.812Z,99.90
2018-09-05T02:23:07.710Z,99.90
2018-09-05T02:25:36.774Z,99.90
2018-09-05T02:28:05.595Z,99.90
2018-09-05T02:30:34.717Z,99.90
2018-09-05T02:33:03.815Z,99.90
2018-09-05T02:35:33.158Z,99.90
2018-09-05T02:38:01.974Z,99.90
2018-09-05T02:40:30.758Z,99.90
2018-09-05T02:42:59.553Z,99.90
2018-09-05T02:45:28.342Z,99.90
2018-09-05T02:47:57.114Z,99.90
2018-09-05T02:50:25.941Z,99.90
2018-09-05T02:52:55.054Z,99.90
2018-09-05T02:55:29.158Z,99.90
2018-09-05T02:57:58.250Z,99.90
2018-09-05T03:00:27.738Z,99.90
2018-09-05T03:02:56.534Z,99.90
2018-09-05T03:05:25.310Z,99.90
2018-09-05T03:07:54.079Z,99.90
2018-09-05T03:10:23.244Z,99.90
2018-09-05T03:12:52.831Z,99.90
2018-09-05T03:15:22.343Z,99.90
2018-09-05T03:17:51.155Z,99.90
2018-09-05T03:20:20.406Z,99.90
2018-09-05T03:22:49.174Z,99.90
2018-09-05T03:25:18.320Z,99.90
2018-09-05T03:27:47.662Z,99.90
2018-09-05T03:30:16.431Z,99.90
2018-09-05T03:32:45.575Z,99.90
2018-09-05T03:35:14.701Z,99.90
2018-09-05T03:37:43.834Z,99.90
2018-09-05T03:40:12.930Z,99.90
2018-09-05T03:42:42.030Z,99.90
2018-09-05T03:45:10.814Z,99.90
2018-09-05T03:47:39.922Z,99.90
2018-09-05T03:50:09.673Z,99.90
2018-09-05T03:52:38.494Z,99.90
2018-09-05T03:55:07.330Z,99.90
2018-09-05T03:57:36.823Z,99.90
2018-09-05T04:00:06.977Z,99.90
2018-09-05T04:02:36.426Z,99.90
2018-09-05T04:05:05.713Z,99.90
2018-09-05T04:07:34.497Z,99.90
2018-09-05T04:10:03.627Z,99.90
2018-09-05T04:12:35.498Z,99.90
2018-09-05T04:15:04.562Z,99.90
2018-09-05T04:17:33.610Z,99.90
2018-09-05T04:20:02.678Z,99.90
2018-09-05T04:22:31.778Z,99.90
2018-09-05T04:25:00.945Z,99.90
2018-09-05T04:27:30.021Z,99.90
2018-09-05T04:29:59.610Z,99.90
2018-09-05T04:32:28.639Z,99.90
2018-09-05T04:34:57.502Z,99.90
2018-09-05T04:37:26.276Z,99.90
2018-09-05T04:39:55.458Z,99.90
2018-09-05T04:42:24.354Z,99.90
2018-09-05T04:44:53.700Z,99.90
2018-09-05T04:47:22.843Z,99.90
2018-09-05T04:49:51.910Z,99.90
2018-09-05T04:52:20.694Z,99.90
2018-09-05T04:54:49.885Z,99.90
2018-09-05T04:57:18.966Z,99.90
2018-09-05T04:59:48.462Z,99.90
2018-09-05T05:02:17.922Z,99.90
2018-09-05T05:04:47.106Z,99.90
2018-09-05T05:07:17.101Z,99.90
2018-09-05T05:09:46.702Z,99.90
2018-09-05T05:12:16.330Z,99.90
2018-09-05T05:14:45.122Z,99.90
2018-09-05T05:17:14.502Z,99.90
2018-09-05T05:19:43.622Z,99.90
2018-09-05T05:22:13.444Z,99.90
2018-09-05T05:24:42.295Z,99.90
2018-09-05T05:27:11.325Z,99.90
2018-09-05T05:29:40.398Z,99.90
2018-09-05T05:32:09.164Z,99.90
2018-09-05T05:34:38.034Z,99.90
2018-09-05T05:37:07.397Z,99.90
2018-09-05T05:39:36.198Z,99.90
2018-09-05T05:42:05.275Z,99.90
2018-09-05T05:44:34.034Z,99.90
2018-09-05T05:47:03.186Z,99.90
2018-09-05T05:49:32.280Z,99.90
2018-09-05T05:52:01.348Z,99.90
2018-09-05T05:54:30.128Z,99.90
2018-09-05T05:56:59.526Z,99.90
2018-09-05T05:59:28.914Z,99.90
2018-09-05T06:01:57.762Z,99.90
2018-09-05T06:04:26.882Z,99.90
2018-09-05T06:06:56.819Z,99.90
2018-09-05T06:09:25.918Z,99.90
2018-09-05T06:11:54.762Z,99.90
2018-09-05T06:14:23.911Z,99.90
2018-09-05T06:16:52.674Z,99.90
2018-09-05T06:19:21.462Z,99.90
2018-09-05T06:21:51.097Z,99.90
2018-09-05T06:24:20.203Z,99.90
2018-09-05T06:26:50.006Z,99.90
2018-09-05T06:29:19.410Z,99.90
2018-09-05T06:31:48.776Z,99.90
2018-09-05T06:34:17.997Z,99.90
2018-09-05T06:36:46.763Z,99.90
2018-09-05T06:39:15.531Z,99.90
2018-09-05T06:41:44.979Z,99.90
2018-09-05T06:44:14.043Z,99.90
2018-09-05T06:46:42.823Z,99.90
2018-09-05T06:49:12.206Z,99.90
2018-09-05T06:51:41.138Z,99.90
2018-09-05T06:54:09.903Z,99.90
2018-09-05T06:56:39.006Z,99.90
2018-09-05T06:59:07.795Z,99.90
2018-09-05T07:01:36.574Z,99.90
2018-09-05T07:04:06.482Z,99.90
2018-09-05T07:06:36.132Z,99.90
2018-09-05T07:09:08.811Z,99.90
2018-09-05T07:12:12.254Z,99.90
2018-09-05T07:14:41.390Z,99.90
2018-09-05T07:17:10.142Z,99.90
2018-09-05T07:19:39.782Z,99.90
2018-09-05T07:22:08.919Z,99.90
2018-09-05T07:24:37.706Z,99.90
2018-09-05T07:27:06.863Z,99.90
2018-09-05T07:29:35.918Z,99.90
2018-09-05T07:32:05.050Z,99.90
2018-09-05T07:34:34.954Z,99.90
2018-09-05T07:37:04.627Z,99.90
2018-09-05T07:39:33.667Z,99.90
2018-09-05T07:42:02.498Z,99.90
2018-09-05T07:44:31.806Z,99.90
2018-09-05T07:47:00.950Z,99.90
2018-09-05T07:49:30.002Z,99.90
2018-09-05T07:51:59.418Z,99.90
2018-09-05T07:54:28.851Z,99.90
2018-09-05T07:56:57.958Z,99.90
2018-09-05T07:59:27.175Z,99.90
2018-09-05T08:01:56.370Z,99.90
2018-09-05T08:04:25.567Z,99.90
2018-09-05T08:06:54.637Z,99.90
2018-09-05T08:09:24.331Z,99.90
2018-09-05T08:11:53.399Z,99.90
2018-09-05T08:14:22.482Z,99.90
2018-09-05T08:16:51.589Z,99.90
2018-09-05T08:19:20.657Z,99.90
2018-09-05T08:21:50.023Z,99.90
2018-09-05T08:24:19.690Z,99.90
2018-09-05T08:26:48.697Z,99.90
2018-09-05T08:29:18.086Z,99.90
2018-09-05T08:31:47.530Z,99.90
2018-09-05T08:34:16.581Z,99.90
2018-09-05T08:36:45.548Z,99.90
2018-09-05T08:39:15.723Z,99.90
2018-09-05T08:41:44.821Z,99.90
2018-09-05T08:44:13.699Z,99.90
2018-09-05T08:46:42.737Z,99.90
2018-09-05T08:49:11.862Z,99.90
2018-09-05T08:51:41.238Z,99.90
2018-09-05T08:54:10.270Z,99.90
2018-09-05T08:56:39.701Z,99.90
2018-09-05T08:59:09.722Z,99.90
2018-09-05T09:01:39.518Z,99.90
2018-09-05T09:04:08.577Z,99.90
2018-09-05T09:06:37.969Z,99.90
2018-09-05T09:09:09.479Z,99.90
2018-09-05T09:11:39.238Z,99.90
2018-09-05T09:14:09.197Z,99.90
2018-09-05T09:16:38.806Z,99.90
2018-09-05T09:19:07.996Z,99.90
2018-09-05T09:21:37.189Z,99.90
2018-09-05T09:24:06.779Z,99.90
2018-09-05T09:26:35.594Z,99.90
2018-09-05T09:29:04.743Z,99.90
2018-09-05T09:31:34.142Z,99.90
2018-09-05T09:34:03.174Z,99.90
2018-09-05T09:36:32.206Z,99.90
2018-09-05T09:39:01.234Z,99.90
2018-09-05T09:41:30.261Z,99.90
2018-09-05T09:43:59.410Z,99.90
2018-09-05T09:46:28.825Z,99.90
2018-09-05T09:48:57.909Z,99.90
2018-09-05T09:51:26.668Z,99.90
2018-09-05T09:53:56.010Z,99.90
2018-09-05T09:56:24.798Z,99.90
2018-09-05T09:58:54.626Z,99.90
2018-09-05T10:01:29.161Z,99.90
2018-09-05T10:04:03.375Z,99.90
2018-09-05T10:06:37.483Z,99.90
2018-09-05T10:09:14.129Z,99.90
2018-09-05T10:11:48.164Z,99.90
2018-09-05T10:14:22.678Z,99.90
2018-09-05T10:16:56.803Z,99.90
2018-09-05T10:19:26.554Z,99.90
2018-09-05T10:21:56.220Z,99.90
2018-09-05T10:24:25.267Z,99.90
2018-09-05T10:26:54.389Z,99.90
2018-09-05T10:29:23.594Z,99.90
2018-09-05T10:31:53.011Z,99.90
2018-09-05T10:34:22.170Z,99.90
2018-09-05T10:36:51.510Z,99.90
2018-09-05T10:39:21.154Z,99.90
2018-09-05T10:41:50.910Z,99.90
2018-09-05T10:44:20.342Z,99.90
2018-09-05T10:46:49.682Z,99.90
2018-09-05T10:49:18.794Z,99.90
2018-09-05T10:51:52.792Z,99.90
2018-09-05T10:54:21.587Z,99.90
2018-09-05T10:56:50.818Z,99.90
2018-09-05T10:59:19.971Z,99.90
2018-09-05T11:01:49.666Z,99.90
2018-09-05T11:04:18.822Z,99.90
2018-09-05T11:06:47.884Z,99.90
2018-09-05T11:09:16.990Z,99.90
2018-09-05T11:11:45.792Z,99.90
2018-09-05T11:14:14.988Z,99.90
2018-09-05T11:16:43.762Z,99.90
2018-09-05T11:19:12.801Z,99.90
2018-09-05T11:21:42.087Z,99.90
2018-09-05T11:24:11.478Z,99.90
2018-09-05T11:26:40.820Z,99.90
2018-09-05T11:29:09.728Z,99.90
2018-09-05T11:31:38.990Z,99.90
2018-09-05T11:34:08.539Z,99.90
2018-09-05T11:36:37.322Z,99.10
2018-09-05T11:39:09.863Z,99.30
2018-09-05T11:41:39.275Z,98.60
2018-09-05T11:44:08.374Z,97.40
2018-09-05T11:46:38.698Z,97.40
2018-09-05T11:49:08.398Z,96.90
2018-09-05T11:51:37.946Z,96.00
2018-09-05T11:54:07.734Z,95.20
2018-09-05T11:56:37.066Z,95.90
2018-09-05T11:59:06.777Z,95.30
2018-09-05T12:01:35.954Z,94.30
2018-09-05T12:04:05.172Z,94.10
2018-09-05T12:06:33.995Z,93.60
2018-09-05T12:09:02.893Z,93.40
2018-09-05T12:11:31.986Z,92.70
2018-09-05T12:14:01.029Z,93.00
2018-09-05T12:16:30.446Z,92.10
2018-09-05T12:18:59.523Z,90.60
2018-09-05T12:21:28.582Z,90.00
2018-09-05T12:23:57.603Z,89.70
2018-09-05T12:26:27.429Z,88.60
2018-09-05T12:28:56.797Z,88.80
2018-09-05T12:31:25.926Z,87.80
2018-09-05T12:33:54.698Z,88.60
2018-09-05T12:36:23.786Z,86.40
2018-09-05T12:38:52.874Z,86.80
2018-09-05T12:41:21.992Z,87.10
2018-09-05T12:43:51.055Z,87.30
2018-09-05T12:46:20.180Z,84.90
2018-09-05T12:48:49.895Z,82.50
2018-09-05T12:51:18.718Z,82.40
2018-09-05T12:53:47.826Z,81.70
2018-09-05T12:56:17.177Z,82.80
2018-09-05T12:58:46.994Z,83.60
2018-09-05T13:01:16.366Z,83.10
2018-09-05T13:03:45.857Z,82.50
2018-09-05T13:06:14.931Z,83.00
2018-09-05T13:08:43.704Z,82.20
2018-09-05T13:11:13.180Z,79.20
2018-09-05T13:13:42.538Z,80.70
2018-09-05T13:16:11.310Z,82.20
2018-09-05T13:18:40.455Z,82.60
2018-09-05T13:21:09.303Z,83.10
2018-09-05T13:23:38.393Z,82.90
2018-09-05T13:26:07.478Z,82.60
2018-09-05T13:28:36.519Z,82.00
2018-09-05T13:31:05.463Z,84.20
2018-09-05T13:33:34.821Z,86.90
2018-09-05T13:36:04.027Z,87.80
2018-09-05T13:38:33.434Z,87.00
2018-09-05T13:41:02.558Z,86.20
2018-09-05T13:43:31.600Z,86.30
2018-09-05T13:46:00.399Z,89.90
2018-09-05T13:48:29.227Z,90.50
2018-09-05T13:50:58.482Z,89.70
2018-09-05T13:53:27.541Z,90.70
2018-09-05T13:55:56.869Z,90.50
2018-09-05T13:58:26.273Z,90.20
2018-09-05T14:00:55.376Z,89.30
2018-09-05T14:03:24.715Z,88.40
2018-09-05T14:05:53.806Z,88.40
2018-09-05T14:08:23.117Z,88.20
2018-09-05T14:10:52.575Z,89.00
2018-09-05T14:13:21.973Z,89.80
2018-09-05T14:15:50.819Z,88.20
2018-09-05T14:18:20.506Z,88.70
2018-09-05T14:20:49.383Z,90.10
2018-09-05T14:23:18.174Z,91.10
2018-09-05T14:25:47.190Z,90.80
2018-09-05T14:28:16.318Z,90.90
2018-09-05T14:30:45.381Z,91.80
2018-09-05T14:33:14.578Z,91.70
2018-09-05T14:35:44.114Z,91.10
2018-09-05T14:38:13.902Z,90.70
2018-09-05T14:40:43.331Z,90.50
2018-09-05T14:43:12.784Z,90.40
2018-09-05T14:45:41.819Z,90.30
2018-09-05T14:48:11.195Z,90.90
2018-09-05T14:50:39.972Z,91.40
2018-09-05T14:53:09.240Z,91.00
2018-09-05T14:55:38.020Z,91.00
2018-09-05T14:58:07.012Z,90.80
2018-09-05T15:00:36.343Z,91.10
2018-09-05T15:03:06.114Z,91.20
2018-09-05T15:05:34.895Z,91.10
2018-09-05T15:08:03.701Z,90.40
2018-09-05T15:10:33.079Z,89.30
2018-09-05T15:13:02.235Z,89.40
2018-09-05T15:15:31.644Z,90.00
2018-09-05T15:18:00.991Z,90.70
2018-09-05T15:20:30.362Z,91.60
2018-09-05T15:22:59.171Z,92.10
2018-09-05T15:25:28.271Z,91.90
2018-09-05T15:27:57.664Z,91.90
2018-09-05T15:30:27.243Z,91.90
2018-09-05T15:32:56.014Z,92.50
2018-09-05T15:35:25.155Z,93.00
2018-09-05T15:37:54.358Z,93.30
2018-09-05T15:40:23.529Z,93.10
2018-09-05T15:42:53.194Z,92.90
2018-09-05T15:45:22.347Z,93.40
2018-09-05T15:47:51.167Z,93.20
2018-09-05T15:50:20.497Z,94.00
2018-09-05T15:52:50.048Z,94.60
2018-09-05T15:55:18.856Z,94.70
2018-09-05T15:57:49.267Z,94.80
2018-09-05T16:00:18.446Z,94.70
2018-09-05T16:02:47.242Z,94.70
2018-09-05T16:05:16.614Z,94.70
2018-09-05T16:07:45.406Z,94.40
2018-09-05T16:10:14.752Z,93.90
2018-09-05T16:12:44.342Z,93.90
2018-09-05T16:15:13.190Z,94.30
2018-09-05T16:17:42.635Z,94.00
2018-09-05T16:20:11.444Z,93.90
2018-09-05T16:22:41.122Z,93.80
2018-09-05T16:25:10.071Z,94.10
2018-09-05T16:27:39.523Z,94.20
2018-09-05T16:30:09.063Z,94.20
2018-09-05T16:32:37.876Z,94.00
2018-09-05T16:35:06.778Z,94.80
2018-09-05T16:37:35.542Z,95.40
2018-09-05T16:40:04.882Z,95.70
2018-09-05T16:42:34.264Z,97.50
2018-09-05T16:45:03.121Z,99.60
2018-09-05T16:47:31.918Z,99.90
2018-09-05T16:50:01.336Z,99.90
2018-09-05T16:52:31.083Z,99.90
2018-09-05T16:55:00.895Z,99.90
2018-09-05T16:57:30.295Z,99.90
2018-09-05T16:59:59.070Z,99.90
2018-09-05T17:02:28.146Z,99.90
2018-09-05T17:04:56.923Z,99.90
2018-09-05T17:07:26.067Z,99.90
2018-09-05T17:09:55.485Z,99.90
2018-09-05T17:12:25.462Z,99.90
2018-09-05T17:14:55.389Z,99.90
2018-09-05T17:17:25.179Z,99.90
2018-09-05T17:19:54.015Z,99.90
2018-09-05T17:22:23.435Z,99.90
2018-09-05T17:24:52.689Z,99.90
2018-09-05T17:27:22.370Z,99.90
2018-09-05T17:29:51.771Z,99.90
2018-09-05T17:32:20.867Z,99.90
2018-09-05T17:34:50.295Z,99.90
2018-09-05T17:37:19.380Z,99.90
2018-09-05T17:39:48.478Z,99.90
2018-09-05T17:42:17.287Z,99.90
2018-09-05T17:44:46.369Z,99.90
2018-09-05T17:47:15.522Z,99.90
2018-09-05T17:49:44.810Z,99.90
2018-09-05T17:52:14.023Z,99.90
2018-09-05T17:54:42.904Z,99.90
2018-09-05T17:57:12.079Z,99.90
2018-09-05T17:59:41.234Z,99.90
2018-09-05T18:02:10.295Z,99.90
2018-09-05T18:04:39.995Z,99.90
2018-09-05T18:07:09.162Z,99.90
2018-09-05T18:09:38.810Z,99.90
2018-09-05T18:12:07.991Z,99.90
2018-09-05T18:14:36.937Z,99.90
2018-09-05T18:17:05.964Z,99.90
2018-09-05T18:19:35.330Z,99.90
2018-09-05T18:22:04.382Z,99.90
2018-09-05T18:24:33.565Z,99.90
2018-09-05T18:27:02.723Z,99.90
2018-09-05T18:29:31.909Z,99.90
2018-09-05T18:32:01.311Z,99.90
2018-09-05T18:34:30.406Z,99.90
2018-09-05T18:36:59.767Z,99.90
2018-09-05T18:39:29.413Z,99.90
2018-09-05T18:41:58.726Z,99.90
2018-09-05T18:44:27.547Z,99.90
2018-09-05T18:46:57.004Z,99.90
2018-09-05T18:49:26.060Z,99.90
2018-09-05T18:51:55.399Z,99.90
2018-09-05T18:54:24.450Z,99.90
2018-09-05T18:56:53.607Z,99.90
2018-09-05T18:59:22.987Z,99.90
2018-09-05T19:01:52.035Z,99.90
2018-09-05T19:04:20.843Z,99.90
2018-09-05T19:06:49.919Z,99.90
2018-09-05T19:09:18.702Z,99.90
2018-09-05T19:11:48.127Z,99.90
2018-09-05T19:14:16.952Z,99.90
2018-09-05T19:16:46.112Z,99.90
2018-09-05T19:19:15.334Z,99.90
2018-09-05T19:21:44.150Z,99.90
2018-09-05T19:24:13.346Z,99.90
2018-09-05T19:26:42.410Z,99.90
2018-09-05T19:29:11.485Z,99.90
2018-09-05T19:31:40.851Z,99.90
2018-09-05T19:34:09.883Z,99.90
2018-09-05T19:36:38.995Z,99.90
2018-09-05T19:39:09.575Z,99.90
2018-09-05T19:41:38.914Z,99.90
2018-09-05T19:44:08.287Z,99.90
2018-09-05T19:46:37.112Z,99.90
2018-09-05T19:49:06.184Z,99.90
2018-09-05T19:51:35.586Z,99.90
2018-09-05T19:54:04.966Z,99.90
2018-09-05T19:56:34.003Z,99.90
2018-09-05T19:59:03.165Z,99.90
2018-09-05T20:01:32.397Z,99.90
2018-09-05T20:04:01.187Z,99.90
2018-09-05T20:06:30.477Z,99.90
2018-09-05T20:08:59.242Z,99.90
2018-09-05T20:11:28.294Z,99.90
2018-09-05T20:13:57.080Z,99.90
2018-09-05T20:16:26.202Z,99.90
2018-09-05T20:18:54.985Z,99.90
2018-09-05T20:21:24.091Z,99.90
2018-09-05T20:23:53.411Z,99.90
2018-09-05T20:26:22.775Z,99.90
2018-09-05T20:28:52.191Z,99.90
2018-09-05T20:31:21.274Z,99.90
2018-09-05T20:33:50.831Z,99.90
2018-09-05T20:36:19.620Z,99.90
2018-09-05T20:38:48.413Z,99.90
2018-09-05T20:41:17.857Z,99.90
2018-09-05T20:43:47.298Z,99.90
2018-09-05T20:46:16.670Z,99.90
2018-09-05T20:48:45.766Z,99.90
2018-09-05T20:51:15.402Z,99.90
2018-09-05T20:53:44.586Z,99.90
2018-09-05T20:56:13.699Z,99.90
2018-09-05T20:58:43.242Z,99.90
2018-09-05T21:01:12.276Z,99.90
2018-09-05T21:03:41.666Z,99.90
2018-09-05T21:06:11.012Z,99.90
2018-09-05T21:08:40.872Z,99.90
2018-09-05T21:11:09.626Z,99.90
2018-09-05T21:13:39.186Z,99.90
2018-09-05T21:16:08.712Z,99.90
2018-09-05T21:18:37.720Z,99.90
2018-09-05T21:21:07.454Z,99.90
2018-09-05T21:23:36.503Z,99.90
2018-09-05T21:26:05.558Z,99.90
2018-09-05T21:28:35.311Z,99.90
2018-09-05T21:31:04.713Z,99.90
2018-09-05T21:33:34.049Z,99.90
2018-09-05T21:36:03.109Z,99.90
2018-09-05T21:38:31.870Z,99.90
2018-09-05T21:41:01.091Z,99.90
2018-09-05T21:43:36.198Z,99.90
2018-09-05T21:46:06.230Z,99.90
2018-09-05T21:48:36.126Z,99.90
2018-09-05T21:51:05.559Z,99.90
2018-09-05T21:53:34.910Z,99.90
2018-09-05T21:56:04.806Z,99.90
2018-09-05T21:58:33.906Z,99.90
2018-09-05T22:01:02.990Z,99.90
2018-09-05T22:03:32.048Z,99.90
2018-09-05T22:06:01.390Z,99.90
2018-09-05T22:08:30.751Z,99.90
2018-09-05T22:11:03.918Z,99.90
2018-09-05T22:13:33.353Z,99.90
2018-09-05T22:16:02.122Z,99.90
2018-09-05T22:18:31.219Z,99.90
2018-09-05T22:21:00.554Z,99.90
2018-09-05T22:23:29.823Z,99.90
2018-09-05T22:25:59.120Z,99.90
2018-09-05T22:28:27.885Z,99.90
2018-09-05T22:30:57.277Z,99.90
2018-09-05T22:33:26.675Z,99.90
2018-09-05T22:35:56.118Z,99.90
2018-09-05T22:38:25.196Z,99.90
2018-09-05T22:40:56.130Z,99.90
2018-09-05T22:43:37.414Z,99.90
2018-09-05T22:46:17.584Z,99.90
2018-09-05T22:50:02.967Z,99.90
2018-09-05T22:55:59.250Z,99.90
2018-09-05T23:02:49.451Z,99.90
2018-09-05T23:06:27.283Z,99.90
2018-09-05T23:08:56.370Z,99.90
2018-09-05T23:12:06.859Z,99.90
2018-09-05T23:14:46.779Z,99.90
2018-09-05T23:17:27.183Z,99.90
2018-09-05T23:21:06.449Z,99.90
2018-09-05T23:23:46.355Z,99.90
2018-09-05T23:26:15.435Z,99.90
2018-09-05T23:28:44.528Z,99.90
2018-09-05T23:31:13.291Z,99.90
2018-09-05T23:33:42.060Z,99.90
2018-09-05T23:36:11.453Z,99.90
2018-09-05T23:38:40.215Z,99.90
2018-09-05T23:41:09.540Z,99.90
2018-09-05T23:43:38.315Z,99.90
2018-09-05T23:46:07.103Z,99.90
2018-09-05T23:48:36.495Z,99.90
2018-09-05T23:51:06.024Z,99.90
2018-09-05T23:53:34.827Z,99.90
2018-09-05T23:56:04.100Z,99.90
2018-09-05T23:58:32.894Z,99.90
